sensor_id;sensor_type;location;lat;lon;timestamp;pressure;altitude;pressure_sealevel;temperature;humidity
48800;BME280;34611;47.964;7.982;2024-03-02T00:00:44;95604.94;;;11.00;62.61
48800;BME280;34611;47.964;7.982;2024-03-02T00:08:22;95614.03;;;10.96;62.57
48800;BME280;34611;47.964;7.982;2024-03-02T00:22:34;95603.81;;;10.94;62.30
48800;BME280;34611;47.964;7.982;2024-03-02T00:29:35;95604.75;;;10.93;62.35
48800;BME280;34611;47.964;7.982;2024-03-02T00:36:35;95605.91;;;10.91;62.23
48800;BME280;34611;47.964;7.982;2024-03-02T00:44:11;95616.44;;;10.89;62.23
48800;BME280;34611;47.964;7.982;2024-03-02T00:51:09;95603.63;;;10.88;61.77
48800;BME280;34611;47.964;7.982;2024-03-02T00:58:09;95613.06;;;10.89;61.94
48800;BME280;34611;47.964;7.982;2024-03-02T01:05:09;95607.34;;;10.85;62.14
48800;BME280;34611;47.964;7.982;2024-03-02T01:12:10;95600.53;;;10.84;62.03
48800;BME280;34611;47.964;7.982;2024-03-02T01:19:10;95610.78;;;10.86;61.89
48800;BME280;34611;47.964;7.982;2024-03-02T01:26:10;95606.88;;;10.82;61.39
48800;BME280;34611;47.964;7.982;2024-03-02T01:33:10;95604.09;;;10.83;61.61
48800;BME280;34611;47.964;7.982;2024-03-02T01:40:11;95593.69;;;10.83;61.32
48800;BME280;34611;47.964;7.982;2024-03-02T01:47:11;95598.28;;;10.81;61.51
48800;BME280;34611;47.964;7.982;2024-03-02T01:54:12;95607.03;;;10.80;61.17
48800;BME280;34611;47.964;7.982;2024-03-02T02:01:12;95607.19;;;10.79;60.96
48800;BME280;34611;47.964;7.982;2024-03-02T02:08:12;95600.88;;;10.81;61.06
48800;BME280;34611;47.964;7.982;2024-03-02T02:15:21;95594.03;;;10.80;61.64
48800;BME280;34611;47.964;7.982;2024-03-02T02:22:21;95585.59;;;10.78;61.15
48800;BME280;34611;47.964;7.982;2024-03-02T02:29:22;95581.19;;;10.79;61.02
48800;BME280;34611;47.964;7.982;2024-03-02T02:36:22;95573.41;;;10.79;61.36
48800;BME280;34611;47.964;7.982;2024-03-02T02:43:22;95563.34;;;10.76;60.89
48800;BME280;34611;47.964;7.982;2024-03-02T02:50:22;95563.19;;;10.77;60.84
48800;BME280;34611;47.964;7.982;2024-03-02T02:57:22;95560.41;;;10.79;61.21
48800;BME280;34611;47.964;7.982;2024-03-02T03:04:23;95549.69;;;10.73;60.74
48800;BME280;34611;47.964;7.982;2024-03-02T03:11:23;95545.63;;;10.63;60.05
48800;BME280;34611;47.964;7.982;2024-03-02T03:18:24;95541.38;;;10.62;59.68
48800;BME280;34611;47.964;7.982;2024-03-02T03:25:25;95540.09;;;10.66;59.85
48800;BME280;34611;47.964;7.982;2024-03-02T03:32:25;95533.09;;;10.66;59.93
48800;BME280;34611;47.964;7.982;2024-03-02T03:39:25;95526.44;;;10.64;59.95
48800;BME280;34611;47.964;7.982;2024-03-02T03:46:27;95540.88;;;10.66;59.90
48800;BME280;34611;47.964;7.982;2024-03-02T03:53:27;95540.09;;;10.66;59.85
48800;BME280;34611;47.964;7.982;2024-03-02T04:00:27;95534.59;;;10.69;60.30
48800;BME280;34611;47.964;7.982;2024-03-02T04:07:27;95535.69;;;10.66;59.55
48800;BME280;34611;47.964;7.982;2024-03-02T04:14:28;95539.78;;;10.69;59.85
48800;BME280;34611;47.964;7.982;2024-03-02T04:21:28;95541.72;;;10.67;59.82
48800;BME280;34611;47.964;7.982;2024-03-02T04:28:28;95561.69;;;10.66;59.62
48800;BME280;34611;47.964;7.982;2024-03-02T04:35:28;95555.03;;;10.64;59.55
48800;BME280;34611;47.964;7.982;2024-03-02T04:42:29;95550.63;;;10.64;59.46
48800;BME280;34611;47.964;7.982;2024-03-02T04:49:29;95560.38;;;10.62;59.64
48800;BME280;34611;47.964;7.982;2024-03-02T04:56:30;95574.53;;;10.68;59.91
48800;BME280;34611;47.964;7.982;2024-03-02T05:03:49;95577.59;;;10.63;59.27
48800;BME280;34611;47.964;7.982;2024-03-02T05:10:49;95565.09;;;10.59;59.08
48800;BME280;34611;47.964;7.982;2024-03-02T05:17:50;95562.97;;;10.62;59.65
48800;BME280;34611;47.964;7.982;2024-03-02T05:24:51;95565.28;;;10.65;59.45
48800;BME280;34611;47.964;7.982;2024-03-02T05:31:51;95567.53;;;10.60;59.22
48800;BME280;34611;47.964;7.982;2024-03-02T05:38:51;95564.91;;;10.60;59.13
48800;BME280;34611;47.964;7.982;2024-03-02T05:45:52;95559.72;;;10.60;59.08
48800;BME280;34611;47.964;7.982;2024-03-02T05:52:52;95569.31;;;10.60;58.87
48800;BME280;34611;47.964;7.982;2024-03-02T05:59:52;95574.34;;;10.61;59.20
48800;BME280;34611;47.964;7.982;2024-03-02T06:06:53;95564.78;;;10.62;59.19
48800;BME280;34611;47.964;7.982;2024-03-02T06:13:56;95573.22;;;10.64;59.45
48800;BME280;34611;47.964;7.982;2024-03-02T06:20:56;95556.81;;;10.63;59.66
48800;BME280;34611;47.964;7.982;2024-03-02T06:27:56;95550.97;;;10.61;59.25
48800;BME280;34611;47.964;7.982;2024-03-02T06:34:57;95544.78;;;10.54;58.55
48800;BME280;34611;47.964;7.982;2024-03-02T06:41:57;95544.13;;;10.52;58.47
48800;BME280;34611;47.964;7.982;2024-03-02T06:48:57;95545.91;;;10.51;57.99
48800;BME280;34611;47.964;7.982;2024-03-02T06:55:57;95546.91;;;10.50;58.10
48800;BME280;34611;47.964;7.982;2024-03-02T07:02:58;95557.59;;;10.47;58.31
48800;BME280;34611;47.964;7.982;2024-03-02T07:09:58;95564.44;;;10.48;57.81
48800;BME280;34611;47.964;7.982;2024-03-02T07:16:58;95568.81;;;10.48;57.98
48800;BME280;34611;47.964;7.982;2024-03-02T07:23:59;95555.84;;;10.48;58.12
48800;BME280;34611;47.964;7.982;2024-03-02T07:31:02;95556.97;;;10.53;58.48
48800;BME280;34611;47.964;7.982;2024-03-02T07:38:04;95554.38;;;10.53;58.36
48800;BME280;34611;47.964;7.982;2024-03-02T07:45:05;95548.34;;;10.53;58.53
48800;BME280;34611;47.964;7.982;2024-03-02T07:52:05;95549.00;;;10.55;58.86
48800;BME280;34611;47.964;7.982;2024-03-02T07:59:05;95545.28;;;10.58;58.78
48800;BME280;34611;47.964;7.982;2024-03-02T08:06:07;95549.50;;;10.59;59.08
48800;BME280;34611;47.964;7.982;2024-03-02T08:13:07;95541.53;;;10.60;58.96
48800;BME280;34611;47.964;7.982;2024-03-02T08:20:08;95547.25;;;10.80;59.51
48800;BME280;34611;47.964;7.982;2024-03-02T08:27:08;95545.78;;;10.78;60.04
48800;BME280;34611;47.964;7.982;2024-03-02T08:34:09;95551.63;;;10.80;60.44
48800;BME280;34611;47.964;7.982;2024-03-02T08:41:09;95541.25;;;10.80;60.50
48800;BME280;34611;47.964;7.982;2024-03-02T08:48:09;95536.69;;;10.82;60.70
48800;BME280;34611;47.964;7.982;2024-03-02T08:55:10;95531.31;;;10.83;60.79
48800;BME280;34611;47.964;7.982;2024-03-02T09:02:11;95528.56;;;10.85;61.01
48800;BME280;34611;47.964;7.982;2024-03-02T09:09:11;95530.19;;;10.86;60.88
48800;BME280;34611;47.964;7.982;2024-03-02T09:16:11;95525.00;;;10.86;61.13
48800;BME280;34611;47.964;7.982;2024-03-02T09:23:12;95524.81;;;10.87;61.14
48800;BME280;34611;47.964;7.982;2024-03-02T09:30:12;95517.66;;;10.89;61.02
48800;BME280;34611;47.964;7.982;2024-03-02T09:37:13;95515.06;;;10.89;61.23
48800;BME280;34611;47.964;7.982;2024-03-02T09:44:14;95513.28;;;10.90;61.17
48800;BME280;34611;47.964;7.982;2024-03-02T09:51:15;95502.72;;;10.91;61.37
48800;BME280;34611;47.964;7.982;2024-03-02T09:58:15;95502.72;;;10.91;61.46
48800;BME280;34611;47.964;7.982;2024-03-02T10:05:25;95494.91;;;10.91;61.32
48800;BME280;34611;47.964;7.982;2024-03-02T10:12:26;95485.16;;;10.93;61.38
48800;BME280;34611;47.964;7.982;2024-03-02T10:19:26;95478.50;;;11.07;60.86
48800;BME280;34611;47.964;7.982;2024-03-02T10:26:27;95464.34;;;10.93;61.76
48800;BME280;34611;47.964;7.982;2024-03-02T10:33:29;95468.75;;;10.93;61.85
48800;BME280;34611;47.964;7.982;2024-03-02T10:40:29;95465.19;;;10.94;61.92
48800;BME280;34611;47.964;7.982;2024-03-02T10:47:30;95453.97;;;10.93;61.80
48800;BME280;34611;47.964;7.982;2024-03-02T10:54:31;95448.75;;;10.93;61.80
48800;BME280;34611;47.964;7.982;2024-03-02T11:01:36;95434.00;;;10.94;61.99
48800;BME280;34611;47.964;7.982;2024-03-02T11:08:38;95426.84;;;10.96;61.76
48800;BME280;34611;47.964;7.982;2024-03-02T11:15:40;95431.22;;;10.96;62.17
48800;BME280;34611;47.964;7.982;2024-03-02T11:22:43;95419.03;;;10.96;62.15
48800;BME280;34611;47.964;7.982;2024-03-02T11:29:44;95407.81;;;10.96;62.21
48800;BME280;34611;47.964;7.982;2024-03-02T11:36:45;95408.44;;;10.98;61.96
48800;BME280;34611;47.964;7.982;2024-03-02T11:43:45;95403.25;;;10.98;62.22
48800;BME280;34611;47.964;7.982;2024-03-02T11:50:51;95402.44;;;10.97;62.37
48800;BME280;34611;47.964;7.982;2024-03-02T11:57:52;95381.66;;;10.97;62.30
48800;BME280;34611;47.964;7.982;2024-03-02T12:04:52;95377.25;;;10.98;62.20
48800;BME280;34611;47.964;7.982;2024-03-02T12:12:05;95359.69;;;11.00;62.30
48800;BME280;34611;47.964;7.982;2024-03-02T12:19:06;95354.69;;;10.98;62.43
48800;BME280;34611;47.964;7.982;2024-03-02T12:26:06;95348.50;;;10.99;62.43
48800;BME280;34611;47.964;7.982;2024-03-02T12:33:07;95341.50;;;11.00;62.45
48800;BME280;34611;47.964;7.982;2024-03-02T12:40:09;95331.94;;;11.00;62.48
48800;BME280;34611;47.964;7.982;2024-03-02T12:47:09;95326.72;;;11.00;62.35
48800;BME280;34611;47.964;7.982;2024-03-02T12:54:10;95327.53;;;11.01;62.62
48800;BME280;34611;47.964;7.982;2024-03-02T13:01:10;95304.13;;;11.01;62.55
48800;BME280;34611;47.964;7.982;2024-03-02T13:08:11;95298.94;;;11.01;62.48
48800;BME280;34611;47.964;7.982;2024-03-02T13:15:11;95292.72;;;11.02;62.64
48800;BME280;34611;47.964;7.982;2024-03-02T13:22:12;95294.53;;;11.01;62.52
48800;BME280;34611;47.964;7.982;2024-03-02T13:29:12;95287.53;;;11.02;62.74
48800;BME280;34611;47.964;7.982;2024-03-02T13:36:12;95283.97;;;11.03;62.53
48800;BME280;34611;47.964;7.982;2024-03-02T13:43:13;95273.56;;;11.03;62.67
48800;BME280;34611;47.964;7.982;2024-03-02T13:50:13;95266.56;;;11.03;62.68
48800;BME280;34611;47.964;7.982;2024-03-02T13:57:16;95255.38;;;11.03;62.68
48800;BME280;34611;47.964;7.982;2024-03-02T14:04:19;95247.41;;;11.04;62.63
48800;BME280;34611;47.964;7.982;2024-03-02T14:11:20;95255.38;;;11.03;62.53
48800;BME280;34611;47.964;7.982;2024-03-02T14:18:20;95256.97;;;11.04;62.75
48800;BME280;34611;47.964;7.982;2024-03-02T14:25:21;95258.59;;;11.05;62.71
48800;BME280;34611;47.964;7.982;2024-03-02T14:32:21;95259.56;;;11.04;62.71
48800;BME280;34611;47.964;7.982;2024-03-02T14:39:22;95250.81;;;11.05;62.89
48800;BME280;34611;47.964;7.982;2024-03-02T14:46:22;95247.84;;;11.08;62.76
48800;BME280;34611;47.964;7.982;2024-03-02T14:53:23;95250.44;;;11.08;62.77
48800;BME280;34611;47.964;7.982;2024-03-02T15:00:23;95243.66;;;11.07;62.88
48800;BME280;34611;47.964;7.982;2024-03-02T15:07:23;95233.25;;;11.07;62.75
48800;BME280;34611;47.964;7.982;2024-03-02T15:14:24;95225.44;;;11.07;62.82
48800;BME280;34611;47.964;7.982;2024-03-02T15:21:24;95221.84;;;11.08;62.88
48800;BME280;34611;47.964;7.982;2024-03-02T15:28:24;95199.44;;;11.07;63.13
48800;BME280;34611;47.964;7.982;2024-03-02T15:35:24;95198.44;;;11.08;63.15
48800;BME280;34611;47.964;7.982;2024-03-02T15:42:25;95180.25;;;11.08;63.04
48800;BME280;34611;47.964;7.982;2024-03-02T15:49:26;95182.66;;;11.09;63.07
48800;BME280;34611;47.964;7.982;2024-03-02T15:56:28;95168.06;;;11.08;63.15
48800;BME280;34611;47.964;7.982;2024-03-02T16:03:28;95152.47;;;11.08;63.19
48800;BME280;34611;47.964;7.982;2024-03-02T16:10:28;95142.88;;;11.09;63.19
48800;BME280;34611;47.964;7.982;2024-03-02T16:17:29;95124.66;;;11.09;63.24
48800;BME280;34611;47.964;7.982;2024-03-02T16:24:29;95118.47;;;11.10;63.34
48800;BME280;34611;47.964;7.982;2024-03-02T16:31:29;95130.66;;;11.09;63.37
48800;BME280;34611;47.964;7.982;2024-03-02T16:38:30;95139.09;;;11.11;63.34
48800;BME280;34611;47.964;7.982;2024-03-02T16:45:30;95147.72;;;11.12;63.39
48800;BME280;34611;47.964;7.982;2024-03-02T16:52:31;95159.09;;;11.11;63.54
48800;BME280;34611;47.964;7.982;2024-03-02T16:59:31;95159.50;;;11.23;63.46
48800;BME280;34611;47.964;7.982;2024-03-02T17:06:32;95146.56;;;11.14;63.74
48800;BME280;34611;47.964;7.982;2024-03-02T17:13:32;95147.53;;;11.13;63.58
48800;BME280;34611;47.964;7.982;2024-03-02T17:20:32;95148.53;;;11.12;63.45
48800;BME280;34611;47.964;7.982;2024-03-02T17:27:35;95163.16;;;11.13;63.47
48800;BME280;34611;47.964;7.982;2024-03-02T17:34:35;95169.16;;;11.14;63.59
48800;BME280;34611;47.964;7.982;2024-03-02T17:41:35;95172.75;;;11.13;63.64
48800;BME280;34611;47.964;7.982;2024-03-02T17:48:36;95172.75;;;11.13;63.61
48800;BME280;34611;47.964;7.982;2024-03-02T17:55:36;95167.19;;;11.16;63.66
48800;BME280;34611;47.964;7.982;2024-03-02T18:02:37;95173.38;;;11.15;63.52
48800;BME280;34611;47.964;7.982;2024-03-02T18:09:37;95159.56;;;11.14;63.57
48800;BME280;34611;47.964;7.982;2024-03-02T18:16:37;95146.38;;;11.16;63.55
48800;BME280;34611;47.964;7.982;2024-03-02T18:23:38;95148.19;;;11.16;63.82
48800;BME280;34611;47.964;7.982;2024-03-02T18:30:38;95135.97;;;11.16;63.73
48800;BME280;34611;47.964;7.982;2024-03-02T18:37:38;95121.38;;;11.15;63.82
48800;BME280;34611;47.964;7.982;2024-03-02T18:44:38;95113.56;;;11.15;63.59
48800;BME280;34611;47.964;7.982;2024-03-02T18:51:39;95103.97;;;11.16;63.99
48800;BME280;34611;47.964;7.982;2024-03-02T18:58:41;95084.97;;;11.15;63.62
48800;BME280;34611;47.964;7.982;2024-03-02T19:05:41;95092.56;;;11.17;63.75
48800;BME280;34611;47.964;7.982;2024-03-02T19:12:42;95082.34;;;11.15;63.87
48800;BME280;34611;47.964;7.982;2024-03-02T19:19:42;95084.75;;;11.17;63.98
48800;BME280;34611;47.964;7.982;2024-03-02T19:26:42;95096.00;;;11.17;63.80
48800;BME280;34611;47.964;7.982;2024-03-02T19:33:43;95100.38;;;11.17;63.92
48800;BME280;34611;47.964;7.982;2024-03-02T19:40:45;95117.75;;;11.16;63.97
48800;BME280;34611;47.964;7.982;2024-03-02T19:47:45;95128.81;;;11.18;63.84
48800;BME280;34611;47.964;7.982;2024-03-02T19:54:45;95131.41;;;11.18;63.98
48800;BME280;34611;47.964;7.982;2024-03-02T20:01:45;95139.38;;;11.17;64.10
48800;BME280;34611;47.964;7.982;2024-03-02T20:08:46;95149.63;;;11.18;64.11
48800;BME280;34611;47.964;7.982;2024-03-02T20:15:46;95149.63;;;11.18;64.08
48800;BME280;34611;47.964;7.982;2024-03-02T20:22:46;95154.81;;;11.18;64.03
48800;BME280;34611;47.964;7.982;2024-03-02T20:29:49;95153.22;;;11.17;63.99
48800;BME280;34611;47.964;7.982;2024-03-02T20:36:49;95151.41;;;11.18;64.23
48800;BME280;34611;47.964;7.982;2024-03-02T20:43:50;95141.81;;;11.18;64.03
48800;BME280;34611;47.964;7.982;2024-03-02T20:50:50;95116.59;;;11.19;63.98
48800;BME280;34611;47.964;7.982;2024-03-02T20:57:50;95108.81;;;11.19;64.17
48800;BME280;34611;47.964;7.982;2024-03-02T21:04:50;95101.00;;;11.19;64.03
48800;BME280;34611;47.964;7.982;2024-03-02T21:11:51;95082.00;;;11.18;64.37
48800;BME280;34611;47.964;7.982;2024-03-02T21:18:51;95058.59;;;11.18;64.18
48800;BME280;34611;47.964;7.982;2024-03-02T21:25:53;95070.63;;;11.19;64.27
48800;BME280;34611;47.964;7.982;2024-03-02T21:32:54;95080.03;;;11.20;64.21
48800;BME280;34611;47.964;7.982;2024-03-02T21:39:54;95061.03;;;11.20;64.26
48800;BME280;34611;47.964;7.982;2024-03-02T21:46:55;95046.22;;;11.20;64.24
48800;BME280;34611;47.964;7.982;2024-03-02T21:53:55;95053.22;;;11.20;64.34
48800;BME280;34611;47.964;7.982;2024-03-02T22:00:58;95058.25;;;11.21;64.21
48800;BME280;34611;47.964;7.982;2024-03-02T22:07:58;95048.81;;;11.20;64.19
48800;BME280;34611;47.964;7.982;2024-03-02T22:14:58;95042.66;;;11.21;64.22
48800;BME280;34611;47.964;7.982;2024-03-02T22:21:58;95037.44;;;11.21;64.42
48800;BME280;34611;47.964;7.982;2024-03-02T22:28:59;95027.22;;;11.20;64.56
48800;BME280;34611;47.964;7.982;2024-03-02T22:35:59;95019.22;;;11.21;64.33
48800;BME280;34611;47.964;7.982;2024-03-02T22:42:59;95012.41;;;11.20;64.52
48800;BME280;34611;47.964;7.982;2024-03-02T22:50:00;95000.19;;;11.21;64.33
48800;BME280;34611;47.964;7.982;2024-03-02T22:57:00;95004.44;;;11.22;64.60
48800;BME280;34611;47.964;7.982;2024-03-02T23:04:01;95014.84;;;11.22;64.51
48800;BME280;34611;47.964;7.982;2024-03-02T23:11:01;95018.41;;;11.21;64.52
48800;BME280;34611;47.964;7.982;2024-03-02T23:18:01;95011.44;;;11.21;64.40
48800;BME280;34611;47.964;7.982;2024-03-02T23:25:02;95023.44;;;11.22;64.62
48800;BME280;34611;47.964;7.982;2024-03-02T23:32:02;95034.63;;;11.23;64.61
48800;BME280;34611;47.964;7.982;2024-03-02T23:39:03;95023.44;;;11.22;64.69
48800;BME280;34611;47.964;7.982;2024-03-02T23:46:04;95032.88;;;11.23;64.53
48800;BME280;34611;47.964;7.982;2024-03-02T23:53:06;95020.03;;;11.22;64.52
